Time;durP1;ratioP1;P1;durP2;ratioP2;P2;SDS_P1;SDS_P2;PMS_P1;PMS_P2;Temp;Humidity;BMP_temperature;BMP_pressure;BME280_temperature;BME280_humidity;BME280_pressure;Samples;Min_cycle;Max_cycle;Signal;HPM_P1;HPM_P2
2021/09/13 04:00:56;;;;;;;11.83;8.73;;;15.70;99.90;;;;;;5742398;23;20509;-71
2021/09/13 04:03:27;;;;;;;9.73;8.13;;;15.70;99.90;;;;;;4931508;29;20609;-72
2021/09/13 04:05:56;;;;;;;11.23;8.60;;;15.70;99.90;;;;;;4931278;29;20552;-72
2021/09/13 04:08:40;;;;;;;8.13;7.53;;;15.70;99.90;;;;;;4933305;29;20469;-72
2021/09/13 04:11:18;;;;;;;8.97;8.07;;;15.70;99.90;;;;;;4931872;29;22129;-73
2021/09/13 04:13:45;;;;;;;9.90;8.93;;;15.70;99.90;;;;;;4915636;29;20490;-75
2021/09/13 04:16:13;;;;;;;8.73;7.93;;;15.80;99.90;;;;;;4918952;29;20529;-74
2021/09/13 04:18:41;;;;;;;10.43;9.23;;;15.80;99.90;;;;;;4919887;29;20544;-74
2021/09/13 04:21:07;;;;;;;11.70;9.10;;;15.70;99.90;;;;;;4928862;29;20495;-74
2021/09/13 04:23:34;;;;;;;15.43;9.40;;;15.70;99.90;;;;;;4918005;29;20490;-75
2021/09/13 04:26:01;;;;;;;9.17;8.33;;;15.70;99.90;;;;;;4912876;29;20551;-75
2021/09/13 04:28:27;;;;;;;10.87;9.10;;;15.70;99.90;;;;;;4932272;29;20528;-74
2021/09/13 04:30:57;;;;;;;16.07;9.30;;;15.70;99.90;;;;;;4916107;29;20559;-75
2021/09/13 04:33:25;;;;;;;12.53;8.60;;;15.70;99.90;;;;;;4931649;29;20462;-72
2021/09/13 04:35:52;;;;;;;9.77;8.83;;;15.70;99.90;;;;;;4912492;29;21172;-71
2021/09/13 04:38:19;;;;;;;10.30;9.27;;;15.70;99.90;;;;;;4921639;29;20462;-72
2021/09/13 04:40:45;;;;;;;9.37;8.40;;;15.80;99.90;;;;;;4915683;29;20653;-72
2021/09/13 04:43:12;;;;;;;11.67;9.10;;;15.70;99.90;;;;;;4916932;29;20577;-72
2021/09/13 04:45:39;;;;;;;11.27;9.20;;;15.70;99.90;;;;;;4916498;29;20470;-72
2021/09/13 04:48:06;;;;;;;9.93;8.93;;;15.70;99.90;;;;;;4910140;29;20519;-73
2021/09/13 04:50:34;;;;;;;10.90;9.87;;;15.60;99.90;;;;;;4924473;29;20554;-73
2021/09/13 04:53:00;;;;;;;11.13;9.73;;;15.60;99.90;;;;;;4914703;29;20460;-72
2021/09/13 04:55:27;;;;;;;13.03;9.50;;;15.60;99.90;;;;;;4911020;29;20475;-74
2021/09/13 04:57:53;;;;;;;10.50;9.03;;;15.60;99.90;;;;;;4901668;29;20471;-72
2021/09/13 05:00:21;;;;;;;11.60;10.10;;;15.60;99.90;;;;;;4901577;29;20466;-72
2021/09/13 05:02:48;;;;;;;12.03;9.70;;;15.60;99.90;;;;;;4908684;29;20493;-72
2021/09/13 05:05:15;;;;;;;11.50;10.30;;;15.60;99.90;;;;;;4927098;29;20462;-72
2021/09/13 05:07:43;;;;;;;12.87;9.93;;;15.60;99.90;;;;;;4919012;29;20478;-72
2021/09/13 05:10:10;;;;;;;11.03;9.20;;;15.50;99.90;;;;;;4902234;29;21027;-72
2021/09/13 05:12:37;;;;;;;12.30;10.00;;;15.60;99.90;;;;;;4913753;29;20549;-71
2021/09/13 05:15:05;;;;;;;10.73;9.47;;;15.50;99.90;;;;;;4919148;29;20973;-72
2021/09/13 05:17:32;;;;;;;10.40;9.30;;;15.50;99.90;;;;;;4928924;28;21056;-72
2021/09/13 05:19:58;;;;;;;10.13;8.53;;;15.50;99.90;;;;;;4923266;29;20979;-71
2021/09/13 05:22:25;;;;;;;10.43;9.23;;;15.60;99.90;;;;;;4918370;29;21132;-72
2021/09/13 05:24:55;;;;;;;10.50;8.53;;;15.60;99.90;;;;;;4919542;29;20470;-73
2021/09/13 05:27:22;;;;;;;10.77;9.67;;;15.60;99.90;;;;;;4927564;29;20931;-72
2021/09/13 05:29:49;;;;;;;9.03;8.13;;;15.70;99.90;;;;;;4922580;29;20526;-72
2021/09/13 05:32:16;;;;;;;8.57;7.77;;;15.80;99.90;;;;;;4927414;29;20558;-73
2021/09/13 05:34:43;;;;;;;9.40;8.27;;;15.80;99.90;;;;;;4900663;29;20514;-71
2021/09/13 05:37:10;;;;;;;9.03;7.80;;;15.80;99.90;;;;;;4921318;29;20536;-74
2021/09/13 05:39:36;;;;;;;10.93;7.83;;;15.90;99.90;;;;;;4918918;29;20533;-75
2021/09/13 05:42:05;;;;;;;11.30;8.83;;;15.90;99.90;;;;;;4927346;29;20995;-73
2021/09/13 05:44:31;;;;;;;7.93;7.20;;;15.90;99.90;;;;;;4917136;29;20482;-74
2021/09/13 05:46:59;;;;;;;9.50;7.70;;;15.90;99.90;;;;;;4921207;29;20462;-73
2021/09/13 05:49:25;;;;;;;8.80;7.63;;;16.00;99.90;;;;;;4919290;29;20466;-74
2021/09/13 05:51:52;;;;;;;7.57;6.57;;;16.00;99.90;;;;;;4916206;29;21014;-73
2021/09/13 05:54:22;;;;;;;8.83;7.50;;;16.00;99.90;;;;;;4917279;29;20470;-74
2021/09/13 05:56:49;;;;;;;8.23;6.80;;;16.10;99.90;;;;;;4918259;29;20554;-74
2021/09/13 05:59:18;;;;;;;10.60;6.47;;;16.10;99.90;;;;;;4918821;29;20467;-74
2021/09/13 06:01:44;;;;;;;9.13;6.20;;;16.10;99.90;;;;;;4917632;29;20497;-73
2021/09/13 06:04:11;;;;;;;7.97;6.53;;;16.20;99.90;;;;;;4912593;29;20538;-75
2021/09/13 06:06:38;;;;;;;6.97;5.97;;;16.20;99.90;;;;;;4917548;29;20470;-73
2021/09/13 06:09:05;;;;;;;8.27;6.50;;;16.20;99.90;;;;;;4918370;29;20919;-72
2021/09/13 06:11:31;;;;;;;6.30;5.90;;;16.30;99.90;;;;;;4916439;29;20490;-73
2021/09/13 06:13:58;;;;;;;14.33;7.40;;;16.30;99.90;;;;;;4915747;29;20481;-74
2021/09/13 06:16:26;;;;;;;7.13;6.43;;;16.30;99.90;;;;;;4916320;29;20537;-74
2021/09/13 06:18:53;;;;;;;8.47;7.67;;;16.30;99.90;;;;;;4918157;29;20470;-74
2021/09/13 06:21:20;;;;;;;6.20;5.70;;;16.40;99.90;;;;;;4916432;29;20565;-74
2021/09/13 06:23:47;;;;;;;9.50;6.00;;;16.40;99.90;;;;;;4915961;29;20596;-74
2021/09/13 06:26:15;;;;;;;8.90;5.50;;;16.40;99.90;;;;;;4920103;29;20457;-72
2021/09/13 06:28:42;;;;;;;7.10;6.50;;;16.40;99.90;;;;;;4936885;28;20470;-73
2021/09/13 06:31:09;;;;;;;6.73;6.17;;;16.40;99.90;;;;;;4935634;29;20486;-72
2021/09/13 06:33:37;;;;;;;6.20;5.63;;;16.50;99.90;;;;;;4913411;29;20467;-73
2021/09/13 06:36:04;;;;;;;7.50;5.90;;;16.50;99.90;;;;;;4913651;29;20955;-73
2021/09/13 06:38:31;;;;;;;6.40;5.63;;;16.50;99.90;;;;;;4915649;29;20517;-73
2021/09/13 06:40:59;;;;;;;5.80;5.30;;;16.60;99.90;;;;;;4925947;29;21002;-72
2021/09/13 06:43:27;;;;;;;5.97;5.10;;;16.60;99.90;;;;;;4923340;29;20508;-72
2021/09/13 06:46:08;;;;;;;5.50;5.13;;;16.70;99.90;;;;;;4936408;29;20529;-74
2021/09/13 06:48:34;;;;;;;9.00;5.97;;;16.70;99.90;;;;;;4914831;29;20462;-73
2021/09/13 06:51:02;;;;;;;8.27;5.93;;;16.80;99.90;;;;;;4917090;29;20545;-75
2021/09/13 06:53:29;;;;;;;5.87;5.37;;;17.00;99.90;;;;;;4902346;29;20468;-74
2021/09/13 06:55:56;;;;;;;5.90;5.23;;;17.00;99.90;;;;;;4928308;29;20847;-71
2021/09/13 06:58:23;;;;;;;5.77;5.20;;;17.10;99.90;;;;;;4914407;29;20470;-71
2021/09/13 07:00:49;;;;;;;6.33;5.10;;;17.20;99.90;;;;;;4902568;29;20527;-72
2021/09/13 07:03:16;;;;;;;5.33;4.90;;;17.30;99.90;;;;;;4921085;29;21021;-73
2021/09/13 07:05:43;;;;;;;4.80;4.53;;;17.40;99.90;;;;;;4927838;29;20499;-72
2021/09/13 07:08:11;;;;;;;4.40;4.20;;;17.50;99.90;;;;;;4930582;29;20466;-72
2021/09/13 07:10:38;;;;;;;5.30;4.20;;;17.50;99.90;;;;;;4921611;29;20490;-73
2021/09/13 07:13:04;;;;;;;5.87;5.37;;;17.60;99.90;;;;;;4924805;29;20461;-72
2021/09/13 07:15:31;;;;;;;6.03;4.53;;;17.60;99.90;;;;;;4923959;28;20478;-72
2021/09/13 07:17:58;;;;;;;7.20;4.47;;;17.70;99.90;;;;;;4918990;29;20466;-72
2021/09/13 07:20:25;;;;;;;4.83;4.43;;;17.80;99.90;;;;;;4912378;29;20458;-72
2021/09/13 07:22:52;;;;;;;5.20;4.73;;;17.80;99.90;;;;;;4910620;29;20459;-72
2021/09/13 07:25:20;;;;;;;5.00;4.50;;;17.90;99.90;;;;;;4924628;29;20470;-72
2021/09/13 07:27:47;;;;;;;5.10;4.70;;;18.00;99.90;;;;;;4929503;29;20466;-73
2021/09/13 07:30:14;;;;;;;5.00;4.60;;;18.10;99.90;;;;;;4919044;29;20537;-72
2021/09/13 07:32:41;;;;;;;5.43;4.53;;;18.20;99.90;;;;;;4916140;29;20474;-72
2021/09/13 07:35:10;;;;;;;4.23;3.90;;;18.30;99.90;;;;;;4925165;29;20483;-72
2021/09/13 07:37:38;;;;;;;3.97;3.67;;;18.40;99.90;;;;;;4920696;29;20470;-72
2021/09/13 07:40:06;;;;;;;3.47;3.23;;;18.40;99.90;;;;;;4921410;29;20548;-73
2021/09/13 07:42:34;;;;;;;3.87;3.57;;;18.50;99.90;;;;;;4925894;29;22356;-72
2021/09/13 07:45:02;;;;;;;5.10;3.37;;;18.50;99.90;;;;;;4914737;29;20910;-74
2021/09/13 07:47:30;;;;;;;3.33;3.03;;;18.50;99.90;;;;;;4915782;29;20499;-74
2021/09/13 07:49:57;;;;;;;6.23;3.07;;;18.50;99.90;;;;;;4916300;29;20999;-75
2021/09/13 07:52:23;;;;;;;5.13;2.23;;;18.40;99.90;;;;;;4915054;29;20581;-75
2021/09/13 07:54:50;;;;;;;3.13;2.40;;;18.40;99.90;;;;;;4912030;29;20459;-75
2021/09/13 07:57:16;;;;;;;3.73;2.60;;;18.40;99.90;;;;;;4897200;29;20475;-75
2021/09/13 07:59:44;;;;;;;9.00;2.80;;;18.50;99.90;;;;;;4913683;29;20523;-72
2021/09/13 08:02:12;;;;;;;3.03;2.83;;;18.50;99.90;;;;;;4910995;29;20498;-72
2021/09/13 08:04:39;;;;;;;5.07;2.80;;;18.50;99.90;;;;;;4907856;29;20490;-72
2021/09/13 08:07:06;;;;;;;2.93;2.50;;;18.60;99.90;;;;;;4924961;29;20477;-74
2021/09/13 08:09:33;;;;;;;4.27;1.73;;;18.60;99.90;;;;;;4933538;29;20465;-72
2021/09/13 08:12:01;;;;;;;3.40;1.73;;;18.50;99.90;;;;;;4915615;29;20474;-72
2021/09/13 08:14:28;;;;;;;4.37;2.10;;;18.30;99.90;;;;;;4917999;29;20622;-72
2021/09/13 08:16:56;;;;;;;2.67;2.30;;;18.30;99.90;;;;;;4898025;29;20530;-73
2021/09/13 08:19:24;;;;;;;2.53;1.93;;;18.30;99.90;;;;;;4911287;29;20462;-73
2021/09/13 08:21:51;;;;;;;2.07;1.90;;;18.40;99.90;;;;;;4915905;29;20537;-72
2021/09/13 08:24:17;;;;;;;2.23;1.83;;;18.40;99.90;;;;;;4920568;29;20486;-73
2021/09/13 08:26:44;;;;;;;2.90;2.33;;;18.40;99.90;;;;;;4922778;29;20458;-71
2021/09/13 08:29:14;;;;;;;1.97;1.77;;;18.50;99.90;;;;;;4930653;29;20466;-74
2021/09/13 08:31:41;;;;;;;2.47;1.83;;;18.40;99.90;;;;;;4900537;29;20539;-74
2021/09/13 08:34:09;;;;;;;3.27;2.00;;;18.30;99.90;;;;;;4933251;29;20524;-73
2021/09/13 08:36:36;;;;;;;2.03;1.97;;;18.20;99.90;;;;;;4916006;29;20471;-71
2021/09/13 08:39:03;;;;;;;3.60;1.73;;;18.10;99.90;;;;;;4914009;29;20467;-72
2021/09/13 08:41:32;;;;;;;2.50;1.83;;;18.10;99.90;;;;;;4915694;29;20479;-72
2021/09/13 08:44:00;;;;;;;2.63;1.67;;;18.10;99.90;;;;;;4924072;29;20500;-71
2021/09/13 08:46:36;;;;;;;1.77;1.50;;;18.20;99.90;;;;;;4922542;29;20463;-71
2021/09/13 08:49:05;;;;;;;1.80;1.50;;;18.10;99.90;;;;;;4909072;29;20573;-71
2021/09/13 08:51:33;;;;;;;1.20;1.10;;;18.10;99.90;;;;;;4917642;29;20483;-71
2021/09/13 08:54:04;;;;;;;1.30;1.20;;;18.10;99.90;;;;;;4933466;29;20468;-71
2021/09/13 08:56:38;;;;;;;2.93;1.50;;;18.10;99.90;;;;;;4930215;29;20465;-71
2021/09/13 08:59:05;;;;;;;2.93;1.60;;;18.20;99.90;;;;;;4916246;29;20530;-69
2021/09/13 09:01:32;;;;;;;1.80;1.00;;;18.30;99.90;;;;;;4924075;29;20493;-70
2021/09/13 09:04:00;;;;;;;1.17;1.03;;;18.40;99.90;;;;;;4909273;29;20494;-70
2021/09/13 09:06:31;;;;;;;5.60;1.67;;;18.40;99.90;;;;;;4901256;29;20586;-71
2021/09/13 09:09:05;;;;;;;1.90;1.80;;;18.50;99.90;;;;;;4907071;29;20470;-71
2021/09/13 09:11:50;;;;;;;1.43;1.33;;;18.60;99.90;;;;;;4900146;29;20539;-70
2021/09/13 09:14:26;;;;;;;1.57;1.20;;;18.70;99.90;;;;;;4908908;29;20466;-70
2021/09/13 09:16:56;;;;;;;0.93;0.80;;;18.70;99.90;;;;;;4937466;29;20540;-71
2021/09/13 09:19:23;;;;;;;0.90;0.90;;;18.70;99.90;;;;;;4924605;29;20484;-70
2021/09/13 09:21:50;;;;;;;1.07;1.00;;;18.60;99.90;;;;;;4904927;29;20538;-70
2021/09/13 09:24:18;;;;;;;1.80;0.97;;;18.60;99.90;;;;;;4910714;29;20565;-70
2021/09/13 09:27:04;;;;;;;2.90;1.30;;;18.50;99.90;;;;;;4937362;29;20888;-70
2021/09/13 09:29:34;;;;;;;3.27;1.37;;;18.50;99.90;;;;;;4928238;29;20880;-71
2021/09/13 09:32:02;;;;;;;0.97;0.90;;;18.60;99.90;;;;;;4929889;29;20782;-70
2021/09/13 09:34:33;;;;;;;1.10;1.10;;;18.60;99.90;;;;;;4916685;29;20474;-70
2021/09/13 09:37:11;;;;;;;1.37;1.03;;;18.70;99.90;;;;;;4899298;29;20898;-68
2021/09/13 09:39:41;;;;;;;2.70;1.27;;;18.80;99.90;;;;;;4910655;29;20477;-68
2021/09/13 09:42:10;;;;;;;3.47;1.43;;;18.80;99.90;;;;;;4906205;29;20497;-71
2021/09/13 09:44:38;;;;;;;4.60;1.50;;;18.90;99.90;;;;;;4918678;29;20573;-70
2021/09/13 09:47:08;;;;;;;3.17;1.23;;;19.00;99.90;;;;;;4919214;29;20564;-71
2021/09/13 09:49:47;;;;;;;1.37;1.27;;;19.10;99.90;;;;;;4931095;29;20810;-70
2021/09/13 09:52:28;;;;;;;3.80;1.10;;;19.20;99.90;;;;;;4934225;29;20481;-69
2021/09/13 09:55:11;;;;;;;1.50;0.90;;;19.20;99.90;;;;;;4917975;29;20463;-71
2021/09/13 09:57:38;;;;;;;3.90;1.00;;;19.30;99.90;;;;;;4934636;29;20624;-70
2021/09/13 10:00:19;;;;;;;3.30;1.30;;;19.40;99.90;;;;;;4937389;29;20832;-73
2021/09/13 10:02:46;;;;;;;1.10;1.10;;;19.20;99.90;;;;;;4936675;29;20556;-73
2021/09/13 10:05:13;;;;;;;1.13;0.87;;;19.30;99.90;;;;;;4925676;28;20547;-73
2021/09/13 10:07:41;;;;;;;0.67;0.67;;;19.20;99.90;;;;;;4936310;29;20477;-73
2021/09/13 10:10:09;;;;;;;1.13;1.13;;;19.10;99.90;;;;;;4937029;29;20465;-73
2021/09/13 10:12:36;;;;;;;0.87;0.80;;;19.10;99.90;;;;;;4937000;29;20529;-73
2021/09/13 10:15:04;;;;;;;2.77;1.00;;;19.00;99.90;;;;;;4937055;28;20482;-73
2021/09/13 10:17:33;;;;;;;1.07;1.07;;;18.80;99.90;;;;;;4936577;29;20517;-73
2021/09/13 10:20:01;;;;;;;1.10;0.97;;;18.80;99.90;;;;;;4937106;29;20960;-71
2021/09/13 10:22:29;;;;;;;1.80;0.97;;;18.80;99.90;;;;;;4919700;29;20483;-70
2021/09/13 10:24:56;;;;;;;5.33;1.53;;;18.90;99.90;;;;;;4918019;29;20490;-70
2021/09/13 10:27:25;;;;;;;1.60;0.93;;;19.00;99.90;;;;;;4917883;29;20545;-70
2021/09/13 10:30:14;;;;;;;1.50;0.83;;;19.10;99.90;;;;;;4917620;29;20507;-70
2021/09/13 10:32:42;;;;;;;1.33;0.90;;;19.20;99.90;;;;;;4917605;29;20557;-71
2021/09/13 10:35:09;;;;;;;0.90;0.90;;;19.40;99.90;;;;;;4917711;29;20465;-71
2021/09/13 10:37:42;;;;;;;0.70;0.70;;;19.50;99.90;;;;;;4914206;29;20818;-71
2021/09/13 10:40:09;;;;;;;0.80;0.80;;;19.60;99.90;;;;;;4936705;29;20528;-72
2021/09/13 10:42:40;;;;;;;0.97;0.80;;;19.50;99.90;;;;;;4936563;29;20473;-70
2021/09/13 10:45:24;;;;;;;0.90;0.90;;;19.50;99.90;;;;;;4936848;29;20509;-70
2021/09/13 10:48:03;;;;;;;0.90;0.63;;;19.60;99.90;;;;;;4936362;29;20469;-71
2021/09/13 10:50:39;;;;;;;1.13;0.70;;;19.50;99.90;;;;;;4935951;29;20501;-72
2021/09/13 10:53:34;;;;;;;0.90;0.90;;;19.70;99.90;;;;;;4935843;29;20469;-71
2021/09/13 10:56:04;;;;;;;0.70;0.70;;;19.70;99.90;;;;;;4933993;29;20523;-71
2021/09/13 10:58:43;;;;;;;1.20;0.83;;;19.60;99.90;;;;;;4936036;29;20465;-71
2021/09/13 11:01:20;;;;;;;0.60;0.60;;;19.60;99.90;;;;;;4935547;29;20500;-71
2021/09/13 11:04:04;;;;;;;0.80;0.80;;;19.50;99.90;;;;;;4936039;29;20576;-71
2021/09/13 11:06:41;;;;;;;1.50;0.90;;;19.50;99.90;;;;;;4935498;29;20472;-72
2021/09/13 11:09:10;;;;;;;1.27;1.10;;;19.40;99.90;;;;;;4935456;29;20473;-71
2021/09/13 11:11:41;;;;;;;1.30;1.20;;;19.40;99.90;;;;;;4935013;29;20497;-71
2021/09/13 11:14:10;;;;;;;1.17;1.10;;;19.40;99.90;;;;;;4935839;29;20469;-72
2021/09/13 11:16:40;;;;;;;1.23;0.70;;;19.30;99.90;;;;;;4935092;29;21014;-72
2021/09/13 11:19:11;;;;;;;1.00;0.90;;;19.20;99.90;;;;;;4935833;29;20457;-72
2021/09/13 11:21:40;;;;;;;2.40;0.90;;;19.20;99.90;;;;;;4918160;29;20483;-73
2021/09/13 11:24:09;;;;;;;1.63;1.30;;;19.00;99.90;;;;;;4916139;29;20812;-71
2021/09/13 11:26:38;;;;;;;1.60;1.23;;;19.00;99.90;;;;;;4911883;29;20460;-71
2021/09/13 11:29:07;;;;;;;1.10;1.10;;;18.90;99.90;;;;;;4916609;29;20461;-71
2021/09/13 11:31:38;;;;;;;1.53;0.93;;;18.90;99.90;;;;;;4933787;29;20588;-71
2021/09/13 11:34:18;;;;;;;1.70;1.10;;;18.80;99.90;;;;;;4935433;29;20493;-73
2021/09/13 11:36:52;;;;;;;1.90;1.00;;;19.00;99.90;;;;;;4935801;29;20551;-71
2021/09/13 11:39:19;;;;;;;1.50;1.00;;;19.10;99.90;;;;;;4935442;29;20469;-71
2021/09/13 11:41:54;;;;;;;1.97;0.87;;;19.20;99.90;;;;;;4935529;29;20541;-72
2021/09/13 11:44:21;;;;;;;3.43;1.00;;;19.30;99.90;;;;;;4936643;29;20981;-73
2021/09/13 11:46:55;;;;;;;0.87;0.87;;;19.40;99.90;;;;;;4935318;29;20466;-72
2021/09/13 11:49:24;;;;;;;1.30;1.20;;;19.40;99.90;;;;;;4935672;29;20488;-71
2021/09/13 11:52:13;;;;;;;2.70;1.10;;;19.50;99.90;;;;;;4934478;29;20485;-71
2021/09/13 11:54:48;;;;;;;1.40;1.40;;;19.70;99.90;;;;;;4935806;29;20445;-73
2021/09/13 11:57:30;;;;;;;1.47;1.20;;;19.80;99.90;;;;;;4935288;29;20469;-73
2021/09/13 11:59:59;;;;;;;0.90;0.90;;;20.00;99.90;;;;;;4935079;28;20473;-73
2021/09/13 12:02:29;;;;;;;3.07;0.80;;;20.10;99.90;;;;;;4910570;29;20981;-71
2021/09/13 12:04:57;;;;;;;1.10;1.10;;;20.10;99.90;;;;;;4921438;29;21085;-71
2021/09/13 12:07:23;;;;;;;1.20;1.10;;;20.10;99.90;;;;;;4932291;29;21095;-72
2021/09/13 12:09:52;;;;;;;3.70;0.80;;;20.20;99.90;;;;;;4934508;29;20978;-71
2021/09/13 12:12:23;;;;;;;2.00;1.10;;;20.20;99.90;;;;;;4934893;29;20548;-71
2021/09/13 12:14:52;;;;;;;2.10;1.03;;;20.10;99.90;;;;;;4935212;29;20529;-71
2021/09/13 12:17:22;;;;;;;2.63;0.87;;;20.00;99.90;;;;;;4934727;29;20507;-71
2021/09/13 12:20:09;;;;;;;1.93;1.70;;;19.90;99.90;;;;;;4924962;29;20470;-72
2021/09/13 12:22:36;;;;;;;1.00;1.00;;;19.90;99.90;;;;;;4914432;29;20984;-71
2021/09/13 12:25:09;;;;;;;1.43;0.90;;;19.70;99.90;;;;;;4915827;29;20478;-71
2021/09/13 12:27:40;;;;;;;1.00;1.00;;;19.70;99.90;;;;;;4915330;29;20873;-71
2021/09/13 12:30:12;;;;;;;1.30;1.10;;;19.80;99.90;;;;;;4915324;29;20590;-72
2021/09/13 12:32:39;;;;;;;1.00;1.00;;;19.70;99.90;;;;;;4915056;29;20585;-71
2021/09/13 12:35:09;;;;;;;3.13;1.03;;;19.70;99.90;;;;;;4915301;29;20470;-72
2021/09/13 12:37:38;;;;;;;2.57;1.30;;;19.70;99.90;;;;;;4932026;29;20469;-72
2021/09/13 12:40:12;;;;;;;1.20;1.17;;;19.70;99.90;;;;;;4934505;29;20846;-73
2021/09/13 12:42:40;;;;;;;1.40;1.03;;;19.70;99.90;;;;;;4933959;29;21006;-71
2021/09/13 12:45:08;;;;;;;2.00;1.10;;;19.70;99.90;;;;;;4934473;29;20913;-71
2021/09/13 12:47:35;;;;;;;1.37;1.27;;;19.70;99.90;;;;;;4934239;29;20521;-71
2021/09/13 12:50:02;;;;;;;1.47;1.47;;;19.70;99.90;;;;;;4934509;29;20469;-72
2021/09/13 12:52:46;;;;;;;1.20;1.10;;;19.70;99.90;;;;;;4928352;29;20482;-72
2021/09/13 12:55:22;;;;;;;1.40;1.30;;;19.70;99.90;;;;;;4896555;29;20452;-72
2021/09/13 12:57:49;;;;;;;1.00;1.00;;;19.70;99.90;;;;;;4895993;29;20474;-71
2021/09/13 13:00:17;;;;;;;3.93;1.27;;;19.60;99.90;;;;;;4896507;29;20471;-71
2021/09/13 13:03:04;;;;;;;2.97;1.00;;;19.60;99.90;;;;;;4896159;29;20467;-72
2021/09/13 13:05:33;;;;;;;1.57;1.47;;;19.50;99.90;;;;;;4895940;29;20495;-74
2021/09/13 13:08:03;;;;;;;3.37;1.07;;;19.50;99.90;;;;;;4895872;29;20561;-72
2021/09/13 13:10:30;;;;;;;1.37;1.30;;;19.50;99.90;;;;;;4908820;29;20486;-72
2021/09/13 13:12:57;;;;;;;4.10;1.37;;;19.60;99.90;;;;;;4914912;29;20489;-71
2021/09/13 13:15:24;;;;;;;1.13;1.03;;;19.60;99.90;;;;;;4915341;29;20629;-72
2021/09/13 13:17:51;;;;;;;2.13;1.20;;;19.60;99.90;;;;;;4915012;29;20469;-72
2021/09/13 13:20:19;;;;;;;1.00;1.00;;;19.70;99.90;;;;;;4915024;29;20530;-71
2021/09/13 13:22:46;;;;;;;1.20;1.20;;;19.60;99.90;;;;;;4913929;29;20912;-72
2021/09/13 13:25:14;;;;;;;1.77;1.00;;;19.60;99.90;;;;;;4915219;29;20597;-71
2021/09/13 13:27:41;;;;;;;1.27;1.27;;;19.60;99.90;;;;;;4902635;29;20476;-72
2021/09/13 13:30:09;;;;;;;0.93;0.93;;;19.60;99.90;;;;;;4896353;29;20475;-71
2021/09/13 13:32:36;;;;;;;2.37;1.00;;;19.60;99.90;;;;;;4895527;29;20975;-73
2021/09/13 13:35:02;;;;;;;1.37;1.30;;;19.60;99.90;;;;;;4896152;29;20817;-73
2021/09/13 13:37:29;;;;;;;1.00;1.00;;;19.60;99.90;;;;;;4895200;29;20471;-73
2021/09/13 13:39:56;;;;;;;1.17;0.90;;;19.60;99.90;;;;;;4897466;29;20996;-73
2021/09/13 13:42:24;;;;;;;2.40;1.20;;;19.60;99.90;;;;;;4899608;29;20913;-73
2021/09/13 13:44:53;;;;;;;1.20;1.20;;;19.60;99.90;;;;;;4917730;29;20462;-73
2021/09/13 13:47:20;;;;;;;1.10;1.10;;;19.60;99.90;;;;;;4918093;29;20454;-73
2021/09/13 13:49:47;;;;;;;2.43;1.33;;;19.70;99.90;;;;;;4918669;29;20565;-73
2021/09/13 13:52:14;;;;;;;1.43;1.40;;;19.70;99.90;;;;;;4917245;29;20486;-72
2021/09/13 13:54:40;;;;;;;1.60;1.50;;;19.70;99.90;;;;;;4918583;29;20466;-73
2021/09/13 13:57:07;;;;;;;1.80;1.27;;;19.80;99.90;;;;;;4918181;29;20462;-72
2021/09/13 13:59:35;;;;;;;1.63;1.53;;;19.90;99.90;;;;;;4919165;29;20832;-72
2021/09/13 14:02:01;;;;;;;2.10;1.63;;;19.90;99.90;;;;;;4936979;29;20990;-72
2021/09/13 14:04:28;;;;;;;1.10;1.00;;;19.90;99.90;;;;;;4914619;29;20580;-72
2021/09/13 14:06:55;;;;;;;3.97;1.93;;;20.00;99.90;;;;;;4898671;29;20527;-73
2021/09/13 14:09:21;;;;;;;1.10;1.00;;;20.10;99.90;;;;;;4898835;29;20471;-72
2021/09/13 14:11:48;;;;;;;1.23;1.17;;;20.10;99.90;;;;;;4899295;29;20551;-72
2021/09/13 14:14:17;;;;;;;1.47;1.37;;;20.00;99.90;;;;;;4899071;29;20526;-73
2021/09/13 14:16:46;;;;;;;1.20;1.20;;;20.00;99.90;;;;;;4901289;29;20467;-73
2021/09/13 14:19:12;;;;;;;2.00;1.27;;;19.90;99.90;;;;;;4904604;29;20466;-73
2021/09/13 14:21:39;;;;;;;2.47;1.10;;;19.90;99.90;;;;;;4933115;29;20481;-72
2021/09/13 14:24:06;;;;;;;2.20;1.17;;;19.90;99.90;;;;;;4935991;29;20982;-73
2021/09/13 14:26:33;;;;;;;2.50;1.13;;;19.80;99.90;;;;;;4936641;29;20493;-73
2021/09/13 14:29:00;;;;;;;4.83;1.60;;;19.80;99.90;;;;;;4936922;29;20883;-73
2021/09/13 14:31:26;;;;;;;1.73;1.63;;;19.70;99.90;;;;;;4935603;29;20878;-73
2021/09/13 14:33:54;;;;;;;3.07;1.30;;;19.70;99.90;;;;;;4917587;29;20530;-72
2021/09/13 14:36:21;;;;;;;3.90;1.47;;;19.70;99.90;;;;;;4917658;29;20466;-73
2021/09/13 14:38:47;;;;;;;1.43;1.30;;;19.70;99.90;;;;;;4917852;29;20999;-73
2021/09/13 14:41:14;;;;;;;1.47;1.40;;;19.70;99.90;;;;;;4917739;29;20522;-73
2021/09/13 14:43:41;;;;;;;1.70;1.40;;;19.80;99.90;;;;;;4917107;29;20723;-73
2021/09/13 14:46:08;;;;;;;1.47;1.40;;;20.00;99.90;;;;;;4916963;29;20486;-73
2021/09/13 14:48:34;;;;;;;2.70;1.43;;;20.00;99.90;;;;;;4918775;29;20530;-74
2021/09/13 14:51:02;;;;;;;2.37;1.20;;;19.90;99.90;;;;;;4935166;29;20597;-74
2021/09/13 14:53:29;;;;;;;1.80;1.30;;;20.00;99.90;;;;;;4921946;29;20467;-73
2021/09/13 14:55:56;;;;;;;2.63;1.30;;;19.90;99.90;;;;;;4898253;29;20476;-74
2021/09/13 14:58:22;;;;;;;2.27;2.07;;;20.00;99.90;;;;;;4898038;29;20474;-74
2021/09/13 15:00:49;;;;;;;4.33;1.97;;;20.00;99.90;;;;;;4897413;29;20506;-74
2021/09/13 15:03:16;;;;;;;2.40;1.40;;;20.00;99.90;;;;;;4897716;29;20471;-74
2021/09/13 15:05:42;;;;;;;1.90;1.20;;;19.90;99.90;;;;;;4902089;29;20518;-74
2021/09/13 15:08:10;;;;;;;1.33;1.23;;;20.00;99.90;;;;;;4935407;29;20469;-72
2021/09/13 15:10:37;;;;;;;1.73;1.17;;;20.00;99.90;;;;;;4935750;29;20496;-73
2021/09/13 15:13:04;;;;;;;1.73;1.20;;;19.90;99.90;;;;;;4935813;29;20879;-73
2021/09/13 15:15:30;;;;;;;5.57;1.73;;;19.90;99.90;;;;;;4935895;29;20472;-73
2021/09/13 15:17:57;;;;;;;1.30;1.20;;;19.90;99.90;;;;;;4935749;29;20573;-73
2021/09/13 15:20:24;;;;;;;1.57;1.47;;;19.80;99.90;;;;;;4931836;29;20835;-73
2021/09/13 15:22:51;;;;;;;1.27;1.10;;;19.80;99.90;;;;;;4920555;29;20546;-72
2021/09/13 15:25:19;;;;;;;1.70;1.40;;;19.70;99.90;;;;;;4921581;29;20548;-67
2021/09/13 15:27:46;;;;;;;1.20;1.20;;;19.70;99.90;;;;;;4914061;29;20487;-68
2021/09/13 15:30:15;;;;;;;1.20;1.10;;;19.70;99.90;;;;;;4916829;29;20985;-67
2021/09/13 15:32:42;;;;;;;1.23;1.20;;;19.60;99.90;;;;;;4934600;29;20461;-67
2021/09/13 15:35:09;;;;;;;2.97;1.50;;;19.60;99.90;;;;;;4913303;29;20476;-67
2021/09/13 15:37:36;;;;;;;2.93;1.40;;;19.60;99.90;;;;;;4912648;29;20462;-67
2021/09/13 15:40:03;;;;;;;1.20;1.20;;;19.60;99.90;;;;;;4925109;29;20466;-74
2021/09/13 15:42:31;;;;;;;2.57;1.50;;;19.50;99.90;;;;;;4934928;29;20537;-74
2021/09/13 15:44:58;;;;;;;4.33;1.43;;;19.50;99.90;;;;;;4918793;29;20482;-73
2021/09/13 15:47:24;;;;;;;2.00;1.20;;;19.50;99.90;;;;;;4916018;29;20490;-73
2021/09/13 15:49:51;;;;;;;1.30;1.30;;;19.50;99.90;;;;;;4930657;29;20504;-74
2021/09/13 15:52:18;;;;;;;2.70;1.20;;;19.40;99.90;;;;;;4916768;29;20494;-74
2021/09/13 15:54:45;;;;;;;4.03;1.37;;;19.40;99.90;;;;;;4904044;29;20475;-74
2021/09/13 15:57:12;;;;;;;1.70;1.27;;;19.40;99.90;;;;;;4914508;29;20465;-74
2021/09/13 15:59:40;;;;;;;2.33;1.30;;;19.40;99.90;;;;;;4924440;29;20466;-75
2021/09/13 16:02:07;;;;;;;4.80;1.87;;;19.40;99.90;;;;;;4925074;29;20501;-75
2021/09/13 16:04:35;;;;;;;2.20;1.40;;;19.40;99.90;;;;;;4908476;29;20529;-75
2021/09/13 16:07:02;;;;;;;1.57;1.47;;;19.30;99.90;;;;;;4921278;29;20482;-74
2021/09/13 16:09:28;;;;;;;1.93;1.70;;;19.30;99.90;;;;;;4910459;29;20562;-71
2021/09/13 16:11:55;;;;;;;1.37;1.37;;;19.30;99.90;;;;;;4905844;29;20549;-74
2021/09/13 16:14:21;;;;;;;1.30;1.23;;;19.20;99.90;;;;;;4928216;29;21011;-73
2021/09/13 16:16:49;;;;;;;1.47;1.37;;;19.10;99.90;;;;;;4932066;29;20477;-73
2021/09/13 16:19:16;;;;;;;1.17;1.10;;;19.10;99.90;;;;;;4929939;29;20470;-73
2021/09/13 16:21:43;;;;;;;0.97;0.90;;;19.10;99.90;;;;;;4930911;29;20485;-73
2021/09/13 16:24:10;;;;;;;2.53;1.50;;;19.10;99.90;;;;;;4927996;29;20477;-74
2021/09/13 16:26:36;;;;;;;1.90;1.43;;;19.10;99.90;;;;;;4931916;29;20545;-75
2021/09/13 16:29:03;;;;;;;1.63;1.53;;;19.00;99.90;;;;;;4926218;29;20458;-73
2021/09/13 16:31:30;;;;;;;2.27;1.30;;;19.00;99.90;;;;;;4901276;29;20788;-74
2021/09/13 16:33:59;;;;;;;2.13;1.23;;;19.00;99.90;;;;;;4897253;29;20856;-74
2021/09/13 16:36:26;;;;;;;2.00;1.13;;;19.00;99.90;;;;;;4908831;29;20834;-73
2021/09/13 16:38:52;;;;;;;1.37;1.27;;;19.00;99.90;;;;;;4897391;29;20508;-73
2021/09/13 16:41:19;;;;;;;1.40;1.30;;;19.00;99.90;;;;;;4917791;29;20508;-72
2021/09/13 16:43:46;;;;;;;1.47;1.43;;;19.00;99.90;;;;;;4898527;29;20546;-72
2021/09/13 16:46:12;;;;;;;0.90;0.90;;;18.90;99.90;;;;;;4918313;28;20489;-72
2021/09/13 16:48:39;;;;;;;1.30;1.10;;;18.90;99.90;;;;;;4896738;29;20501;-72
2021/09/13 16:51:07;;;;;;;1.10;1.10;;;18.80;99.90;;;;;;4921696;29;20481;-71
2021/09/13 16:53:34;;;;;;;2.73;1.53;;;18.70;99.90;;;;;;4906805;29;20468;-71